createdAt,value
2019-04-27T00:02:09.990Z,12.00
2019-04-27T00:04:32.722Z,12.10
2019-04-27T00:06:42.970Z,12.10
2019-04-27T00:09:00.259Z,12.10
2019-04-27T00:11:14.500Z,12.00
2019-04-27T00:13:19.898Z,12.00
2019-04-27T00:16:09.798Z,12.00
2019-04-27T00:18:34.237Z,11.90
2019-04-27T00:20:55.038Z,11.90
2019-04-27T00:23:13.268Z,11.80
2019-04-27T00:25:26.955Z,11.80
2019-04-27T00:27:33.492Z,11.80
2019-04-27T00:29:39.202Z,11.80
2019-04-27T00:31:53.369Z,11.80
2019-04-27T00:33:59.250Z,11.80
2019-04-27T00:36:18.005Z,11.80
2019-04-27T00:38:47.594Z,11.80
2019-04-27T00:41:00.499Z,11.80
2019-04-27T00:43:13.961Z,11.80
2019-04-27T00:45:26.382Z,11.70
2019-04-27T00:47:32.704Z,11.70
2019-04-27T00:49:52.617Z,11.70
2019-04-27T00:51:59.223Z,11.60
2019-04-27T00:54:11.410Z,11.60
2019-04-27T00:56:29.843Z,11.50
2019-04-27T00:58:53.894Z,11.50
2019-04-27T01:01:18.978Z,11.50
2019-04-27T01:03:37.659Z,11.50
2019-04-27T01:05:43.366Z,11.50
2019-04-27T01:07:54.966Z,11.50
2019-04-27T01:10:00.602Z,11.40
2019-04-27T01:12:13.641Z,11.50
2019-04-27T01:14:19.501Z,11.50
2019-04-27T01:16:25.226Z,11.50
2019-04-27T01:18:38.742Z,11.40
2019-04-27T01:20:44.425Z,11.50
2019-04-27T01:22:50.116Z,11.40
2019-04-27T01:25:02.014Z,11.40
2019-04-27T01:27:18.826Z,11.30
2019-04-27T01:29:26.074Z,11.10
2019-04-27T01:31:39.653Z,10.90
2019-04-27T01:33:45.270Z,10.80
2019-04-27T01:35:58.902Z,10.50
2019-04-27T01:38:04.606Z,10.30
2019-04-27T01:40:22.864Z,10.20
2019-04-27T01:42:35.411Z,10.00
2019-04-27T01:44:41.391Z,9.80
2019-04-27T01:46:48.560Z,9.60
2019-04-27T01:49:00.739Z,9.50
2019-04-27T01:51:14.102Z,9.50
2019-04-27T01:53:28.623Z,9.50
2019-04-27T01:55:34.599Z,9.50
2019-04-27T01:57:40.284Z,9.50
2019-04-27T01:59:52.461Z,9.50
2019-04-27T02:02:19.585Z,9.50
2019-04-27T02:04:39.504Z,9.40
2019-04-27T02:06:53.566Z,9.40
2019-04-27T02:09:02.919Z,9.40
2019-04-27T02:11:15.071Z,9.40
2019-04-27T02:13:21.528Z,9.40
2019-04-27T02:15:35.386Z,9.40
2019-04-27T02:17:41.311Z,9.40
2019-04-27T02:19:49.399Z,9.40
2019-04-27T02:22:01.333Z,9.40
2019-04-27T02:24:07.195Z,9.40
2019-04-27T02:26:12.571Z,9.30
2019-04-27T02:28:42.308Z,9.30
2019-04-27T02:31:05.244Z,9.30
2019-04-27T02:33:30.491Z,9.40
2019-04-27T02:35:43.759Z,9.40
2019-04-27T02:37:50.214Z,9.40
2019-04-27T02:40:03.137Z,9.40
2019-04-27T02:42:14.972Z,9.30
2019-04-27T02:44:49.415Z,9.30
2019-04-27T02:46:54.505Z,9.30
2019-04-27T02:49:06.351Z,9.30
2019-04-27T02:51:16.496Z,9.30
2019-04-27T02:53:49.805Z,9.30
2019-04-27T02:55:54.825Z,9.30
2019-04-27T02:58:06.551Z,9.30
2019-04-27T03:00:13.703Z,9.30
2019-04-27T03:02:25.686Z,9.30
2019-04-27T03:04:39.921Z,9.30
2019-04-27T03:06:44.934Z,9.30
2019-04-27T03:08:56.748Z,9.30
2019-04-27T03:11:09.942Z,9.30
2019-04-27T03:13:26.019Z,9.30
2019-04-27T03:15:46.065Z,9.30
2019-04-27T03:18:19.573Z,9.30
2019-04-27T03:21:05.967Z,9.30
2019-04-27T03:23:11.731Z,9.30
2019-04-27T03:25:40.077Z,9.20
2019-04-27T03:27:53.869Z,9.30
2019-04-27T03:29:59.885Z,9.30
2019-04-27T03:32:13.057Z,9.30
2019-04-27T03:34:25.242Z,9.20
2019-04-27T03:36:31.918Z,9.20
2019-04-27T03:38:49.934Z,9.30
2019-04-27T03:41:02.140Z,9.30
2019-04-27T03:43:15.749Z,9.30
2019-04-27T03:45:29.942Z,9.20
2019-04-27T03:47:35.867Z,9.20
2019-04-27T03:49:50.557Z,9.30
2019-04-27T03:52:09.625Z,9.30
2019-04-27T03:54:33.427Z,9.30
2019-04-27T03:56:42.811Z,9.30
2019-04-27T03:59:06.681Z,9.30
2019-04-27T04:01:12.156Z,9.30
2019-04-27T04:03:24.493Z,9.30
2019-04-27T04:05:30.170Z,9.30
2019-04-27T04:07:42.290Z,9.40
2019-04-27T04:09:50.376Z,9.40
2019-04-27T04:12:02.238Z,9.40
2019-04-27T04:14:20.256Z,9.50
2019-04-27T04:16:46.706Z,9.50
2019-04-27T04:19:03.411Z,9.50
2019-04-27T04:21:15.765Z,9.50
2019-04-27T04:23:22.335Z,9.60
2019-04-27T04:25:30.250Z,9.60
2019-04-27T04:27:43.062Z,9.60
2019-04-27T04:29:49.254Z,9.60
2019-04-27T04:32:01.704Z,9.60
2019-04-27T04:34:11.552Z,9.50
2019-04-27T04:36:14.428Z,9.50
2019-04-27T04:38:30.207Z,9.50
2019-04-27T04:40:46.675Z,9.40
2019-04-27T04:43:05.022Z,9.30
2019-04-27T04:45:25.053Z,9.30
2019-04-27T04:47:40.821Z,9.30
2019-04-27T04:50:07.570Z,9.20
2019-04-27T04:52:00.312Z,9.30
2019-04-27T04:54:19.777Z,9.40
2019-04-27T04:56:26.042Z,9.40
2019-04-27T04:58:31.539Z,9.40
2019-04-27T05:00:43.611Z,9.50
2019-04-27T05:02:49.814Z,9.50
2019-04-27T05:05:01.911Z,9.50
2019-04-27T05:07:09.033Z,9.70
2019-04-27T05:09:14.507Z,9.90
2019-04-27T05:11:26.267Z,10.10
2019-04-27T05:13:39.393Z,10.20
2019-04-27T05:15:44.863Z,10.40
2019-04-27T05:17:51.033Z,10.60
2019-04-27T05:20:04.076Z,10.70
2019-04-27T05:22:16.835Z,10.70
2019-04-27T05:24:22.238Z,10.90
2019-04-27T05:26:29.365Z,10.90
2019-04-27T05:28:42.545Z,11.10
2019-04-27T05:30:48.946Z,11.30
2019-04-27T05:32:54.937Z,11.20
2019-04-27T05:35:06.782Z,11.20
2019-04-27T05:37:12.218Z,11.20
2019-04-27T05:39:25.060Z,11.10
2019-04-27T05:41:41.233Z,11.10
2019-04-27T05:44:07.588Z,11.30
2019-04-27T05:46:51.203Z,11.30
2019-04-27T05:49:01.654Z,11.60
2019-04-27T05:51:11.026Z,11.60
2019-04-27T05:53:18.875Z,11.60
2019-04-27T05:55:39.308Z,11.60
2019-04-27T05:57:51.822Z,11.50
2019-04-27T05:59:58.914Z,12.40
2019-04-27T06:02:11.971Z,13.50
2019-04-27T06:04:23.662Z,13.80
2019-04-27T06:06:29.617Z,13.30
2019-04-27T06:08:37.071Z,13.10
2019-04-27T06:10:48.961Z,13.60
2019-04-27T06:12:54.581Z,12.90
2019-04-27T06:15:01.671Z,13.30
2019-04-27T06:17:14.462Z,13.70
2019-04-27T06:19:19.900Z,13.80
2019-04-27T06:21:25.961Z,13.70
2019-04-27T06:23:39.059Z,13.70
2019-04-27T06:25:45.206Z,13.80
2019-04-27T06:27:53.682Z,13.70
2019-04-27T06:30:05.315Z,13.70
2019-04-27T06:32:10.879Z,13.80
2019-04-27T06:34:16.482Z,13.80
2019-04-27T06:36:28.807Z,13.70
2019-04-27T06:38:34.166Z,14.20
2019-04-27T06:40:39.550Z,14.20
2019-04-27T06:42:59.574Z,14.00
2019-04-27T06:45:06.007Z,13.80
2019-04-27T06:47:19.131Z,13.90
2019-04-27T06:49:31.798Z,13.80
2019-04-27T06:51:37.202Z,13.60
2019-04-27T06:53:50.226Z,13.60
2019-04-27T06:55:55.840Z,13.70
2019-04-27T06:58:08.979Z,13.50
2019-04-27T07:00:20.806Z,13.40
2019-04-27T07:02:26.234Z,13.50
2019-04-27T07:04:33.571Z,13.60
2019-04-27T07:06:54.061Z,13.60
2019-04-27T07:08:55.227Z,13.90
2019-04-27T07:11:08.634Z,13.70
2019-04-27T07:13:13.820Z,13.60
2019-04-27T07:15:20.548Z,14.10
2019-04-27T07:17:33.170Z,14.30
2019-04-27T07:19:39.697Z,14.30
2019-04-27T07:21:45.355Z,14.70
2019-04-27T07:24:03.274Z,14.70
2019-04-27T07:26:09.354Z,14.60
2019-04-27T07:28:20.958Z,15.00
2019-04-27T07:30:26.096Z,15.30
2019-04-27T07:32:42.178Z,15.40
2019-04-27T07:34:55.269Z,15.40
2019-04-27T07:37:00.347Z,15.70
2019-04-27T07:39:11.230Z,15.70
2019-04-27T07:41:23.029Z,15.80
2019-04-27T07:43:46.273Z,15.90
2019-04-27T07:45:59.086Z,16.60
2019-04-27T07:48:04.354Z,17.10
2019-04-27T07:50:09.744Z,17.30
2019-04-27T07:52:21.964Z,18.60
2019-04-27T07:54:28.475Z,20.10
2019-04-27T07:56:40.935Z,20.30
2019-04-27T07:58:52.981Z,20.00
2019-04-27T08:01:04.583Z,18.40
2019-04-27T08:03:16.479Z,17.90
2019-04-27T08:05:21.738Z,18.10
2019-04-27T08:07:26.958Z,17.70
2019-04-27T08:09:41.310Z,18.10
2019-04-27T08:11:53.131Z,20.80
2019-04-27T08:13:58.906Z,20.90
2019-04-27T08:16:10.582Z,20.00
2019-04-27T08:18:22.458Z,20.80
2019-04-27T08:20:34.485Z,21.30
2019-04-27T08:22:39.666Z,21.90
2019-04-27T08:24:44.878Z,22.50
2019-04-27T08:27:04.615Z,22.40
2019-04-27T08:29:32.947Z,22.90
2019-04-27T08:31:55.346Z,22.00
2019-04-27T08:34:00.634Z,22.50
2019-04-27T08:36:05.762Z,22.70
2019-04-27T08:38:20.379Z,23.00
2019-04-27T08:40:23.982Z,24.00
2019-04-27T08:42:35.547Z,23.80
2019-04-27T08:44:49.536Z,24.60
2019-04-27T08:46:54.610Z,25.40
2019-04-27T08:48:59.731Z,24.20
2019-04-27T08:51:11.795Z,23.80
2019-04-27T08:53:18.518Z,23.50
2019-04-27T08:55:30.120Z,24.60
2019-04-27T08:57:35.730Z,24.90
2019-04-27T08:59:54.472Z,25.00
2019-04-27T09:02:08.791Z,22.20
2019-04-27T09:04:14.018Z,21.50
2019-04-27T09:06:26.468Z,19.90
2019-04-27T09:08:43.987Z,18.90
2019-04-27T09:11:18.957Z,18.20
2019-04-27T09:13:53.676Z,17.80
2019-04-27T09:16:02.767Z,18.00
2019-04-27T09:18:09.031Z,18.50
2019-04-27T09:20:31.970Z,18.40
2019-04-27T09:22:37.128Z,19.40
2019-04-27T09:24:49.851Z,19.50
2019-04-27T09:26:54.975Z,19.90
2019-04-27T09:29:00.110Z,20.90
2019-04-27T09:31:12.111Z,21.90
2019-04-27T09:33:17.906Z,20.80
2019-04-27T09:35:30.272Z,19.40
2019-04-27T09:37:36.583Z,18.70
2019-04-27T09:39:49.047Z,18.00
2019-04-27T09:41:54.199Z,17.70
2019-04-27T09:44:06.328Z,18.10
2019-04-27T09:46:17.684Z,17.40
2019-04-27T09:48:29.750Z,17.00
2019-04-27T09:50:36.070Z,17.20
2019-04-27T09:52:48.493Z,19.10
2019-04-27T09:54:53.615Z,22.50
2019-04-27T09:57:07.174Z,23.00
2019-04-27T09:59:19.718Z,21.40
2019-04-27T10:01:31.286Z,23.10
2019-04-27T10:03:43.405Z,25.80
2019-04-27T10:05:48.646Z,24.90
2019-04-27T10:07:54.019Z,24.40
2019-04-27T10:10:06.475Z,23.70
2019-04-27T10:12:12.589Z,24.20
2019-04-27T10:14:19.234Z,25.50
2019-04-27T10:16:31.255Z,25.20
2019-04-27T10:18:36.845Z,24.60
2019-04-27T10:20:59.177Z,24.60
2019-04-27T10:23:01.032Z,24.20
2019-04-27T10:25:09.246Z,25.80
2019-04-27T10:27:20.820Z,26.80
2019-04-27T10:29:26.831Z,27.00
2019-04-27T10:31:32.058Z,27.40
2019-04-27T10:33:45.901Z,26.60
2019-04-27T10:35:51.234Z,23.80
2019-04-27T10:38:03.923Z,23.60
2019-04-27T10:40:09.074Z,23.10
2019-04-27T10:42:27.400Z,21.00
2019-04-27T10:44:32.763Z,21.00
2019-04-27T10:46:39.902Z,20.30
2019-04-27T10:48:52.195Z,19.00
2019-04-27T10:50:57.417Z,18.50
2019-04-27T10:53:09.126Z,18.50
2019-04-27T10:55:20.449Z,18.50
2019-04-27T10:57:26.002Z,18.50
2019-04-27T10:59:31.447Z,18.70
2019-04-27T11:01:43.845Z,19.00
2019-04-27T11:04:39.852Z,19.00
2019-04-27T11:06:54.718Z,18.80
2019-04-27T11:08:59.938Z,18.60
2019-04-27T11:11:05.670Z,18.80
2019-04-27T11:13:17.918Z,19.70
2019-04-27T11:15:23.443Z,21.30
2019-04-27T11:17:36.891Z,22.20
2019-04-27T11:19:41.960Z,22.30
2019-04-27T11:21:53.699Z,20.60
2019-04-27T11:23:58.819Z,18.90
2019-04-27T11:26:07.454Z,18.20
2019-04-27T11:28:18.031Z,18.20
2019-04-27T11:30:23.775Z,17.90
2019-04-27T11:32:28.906Z,18.00
2019-04-27T11:34:59.003Z,17.80
2019-04-27T11:37:07.518Z,17.50
2019-04-27T11:39:21.794Z,17.60
2019-04-27T11:41:26.925Z,17.40
2019-04-27T11:43:38.834Z,17.40
2019-04-27T11:45:52.106Z,17.40
2019-04-27T11:47:57.948Z,18.00
2019-04-27T11:50:03.449Z,18.50
2019-04-27T11:52:16.355Z,18.90
2019-04-27T11:54:21.583Z,18.40
2019-04-27T11:56:27.444Z,18.60
2019-04-27T11:58:39.600Z,21.80
2019-04-27T12:00:44.835Z,23.10
2019-04-27T12:02:56.822Z,21.60
2019-04-27T12:05:16.078Z,20.60
2019-04-27T12:07:21.403Z,20.10
2019-04-27T12:09:33.624Z,19.40
2019-04-27T12:11:45.182Z,21.00
2019-04-27T12:13:50.330Z,21.40
2019-04-27T12:16:01.562Z,22.20
2019-04-27T12:18:08.991Z,22.50
2019-04-27T12:20:20.890Z,21.30
2019-04-27T12:22:27.711Z,21.50
2019-04-27T12:24:32.826Z,24.10
2019-04-27T12:27:05.784Z,24.60
2019-04-27T12:29:16.177Z,26.10
2019-04-27T12:31:26.750Z,25.70
2019-04-27T12:33:38.534Z,23.40
2019-04-27T12:35:43.649Z,23.20
2019-04-27T12:37:48.771Z,24.50
2019-04-27T12:40:00.841Z,24.40
2019-04-27T12:42:06.119Z,22.90
2019-04-27T12:44:25.991Z,22.10
2019-04-27T12:46:31.098Z,20.10
2019-04-27T12:48:37.492Z,19.60
2019-04-27T12:50:49.868Z,19.10
2019-04-27T12:52:58.262Z,18.90
2019-04-27T12:55:25.725Z,18.90
2019-04-27T12:57:54.175Z,18.80
2019-04-27T13:00:12.783Z,18.90
2019-04-27T13:02:26.000Z,19.10
2019-04-27T13:04:38.376Z,19.30
2019-04-27T13:06:57.238Z,19.80
2019-04-27T13:09:02.406Z,20.30
2019-04-27T13:11:07.659Z,20.80
2019-04-27T13:13:19.165Z,20.40
2019-04-27T13:15:24.398Z,20.30
2019-04-27T13:17:36.719Z,20.70
2019-04-27T13:19:42.046Z,20.60
2019-04-27T13:21:47.238Z,21.30
2019-04-27T13:24:04.219Z,21.30
2019-04-27T13:26:12.702Z,21.30
2019-04-27T13:28:18.691Z,20.80
2019-04-27T13:30:31.271Z,20.50
2019-04-27T13:32:37.339Z,20.60
2019-04-27T13:34:42.558Z,21.00
2019-04-27T13:36:56.160Z,21.10
2019-04-27T13:39:01.402Z,20.10
2019-04-27T13:41:07.875Z,19.50
2019-04-27T13:43:27.970Z,19.10
2019-04-27T13:45:48.032Z,18.50
2019-04-27T13:48:21.417Z,18.30
2019-04-27T13:50:38.226Z,19.10
2019-04-27T13:52:50.162Z,20.10
2019-04-27T13:54:55.749Z,20.40
2019-04-27T13:57:01.215Z,20.70
2019-04-27T13:59:15.041Z,20.40
2019-04-27T14:01:20.438Z,20.70
2019-04-27T14:03:34.569Z,19.40
2019-04-27T14:05:47.780Z,19.10
2019-04-27T14:08:06.984Z,18.60
2019-04-27T14:10:20.313Z,18.30
2019-04-27T14:12:28.363Z,18.20
2019-04-27T14:14:34.571Z,18.40
2019-04-27T14:16:46.554Z,18.00
2019-04-27T14:18:52.531Z,17.60
2019-04-27T14:21:04.762Z,17.60
2019-04-27T14:23:21.969Z,17.60
2019-04-27T14:25:28.066Z,17.20
2019-04-27T14:27:40.587Z,16.90
2019-04-27T14:29:52.422Z,16.70
2019-04-27T14:31:58.674Z,16.60
2019-04-27T14:34:10.663Z,16.40
2019-04-27T14:36:15.799Z,16.40
2019-04-27T14:38:27.474Z,16.50
2019-04-27T14:40:32.711Z,16.50
2019-04-27T14:42:43.871Z,16.50
2019-04-27T14:44:56.635Z,16.70
2019-04-27T14:47:08.585Z,16.70
2019-04-27T14:49:14.186Z,16.70
2019-04-27T14:51:26.315Z,16.50
2019-04-27T14:53:31.882Z,16.50
2019-04-27T14:55:44.834Z,16.50
2019-04-27T14:57:56.334Z,16.60
2019-04-27T15:00:07.602Z,16.50
2019-04-27T15:02:19.674Z,16.60
2019-04-27T15:04:33.663Z,16.50
2019-04-27T15:06:45.894Z,16.60
2019-04-27T15:08:57.839Z,16.60
2019-04-27T15:11:17.369Z,16.50
2019-04-27T15:13:18.821Z,16.40
2019-04-27T15:15:32.722Z,16.40
2019-04-27T15:17:40.208Z,16.50
2019-04-27T15:19:52.787Z,16.60
2019-04-27T15:22:04.355Z,16.70
2019-04-27T15:24:13.581Z,16.80
2019-04-27T15:26:22.832Z,16.80
2019-04-27T15:28:37.407Z,16.90
2019-04-27T15:31:01.582Z,16.50
2019-04-27T15:33:54.643Z,16.40
2019-04-27T15:36:10.358Z,16.60
2019-04-27T15:38:20.010Z,16.90
2019-04-27T15:41:04.222Z,17.10
2019-04-27T15:43:26.944Z,17.10
2019-04-27T15:45:42.703Z,17.10
2019-04-27T15:47:54.196Z,17.30
2019-04-27T15:49:54.877Z,17.30
2019-04-27T15:52:06.559Z,17.40
2019-04-27T15:54:11.692Z,17.20
2019-04-27T15:56:23.447Z,17.00
2019-04-27T15:58:34.965Z,16.90
2019-04-27T16:00:40.142Z,16.70
2019-04-27T16:02:52.831Z,16.90
2019-04-27T16:05:04.923Z,17.00
2019-04-27T16:07:10.212Z,17.10
2019-04-27T16:09:25.573Z,17.10
2019-04-27T16:11:50.314Z,17.00
2019-04-27T16:13:51.923Z,16.80
2019-04-27T16:16:04.534Z,17.10
2019-04-27T16:18:10.069Z,16.90
2019-04-27T16:20:22.082Z,16.90
2019-04-27T16:22:30.966Z,16.90
2019-04-27T16:24:36.425Z,16.70
2019-04-27T16:26:46.489Z,16.50
2019-04-27T16:28:58.079Z,16.40
2019-04-27T16:31:03.774Z,16.10
2019-04-27T16:33:09.027Z,16.00
2019-04-27T16:35:23.120Z,15.70
2019-04-27T16:37:38.815Z,15.60
2019-04-27T16:39:51.338Z,15.40
2019-04-27T16:41:56.523Z,15.30
2019-04-27T16:44:10.909Z,15.20
2019-04-27T16:46:30.003Z,15.10
2019-04-27T16:48:43.206Z,15.00
2019-04-27T16:50:59.298Z,14.90
2019-04-27T16:53:03.180Z,14.80
2019-04-27T16:55:08.749Z,14.70
2019-04-27T16:57:22.653Z,14.50
2019-04-27T16:59:43.017Z,14.30
2019-04-27T17:24:02.667Z,13.70
2019-04-27T18:26:17.557Z,10.50
2019-04-27T18:28:39.303Z,10.40
2019-04-27T18:31:15.934Z,10.30
2019-04-27T18:33:20.851Z,10.40
2019-04-27T18:35:34.161Z,10.20
2019-04-27T18:37:40.021Z,10.20
2019-04-27T18:39:54.875Z,10.10
2019-04-27T18:41:59.698Z,9.90
2019-04-27T18:44:05.106Z,9.70
2019-04-27T18:46:24.748Z,9.50
2019-04-27T18:48:55.838Z,9.30
2019-04-27T18:51:20.762Z,9.10
2019-04-27T18:53:28.882Z,9.10
2019-04-27T18:55:40.903Z,9.00
2019-04-27T18:57:50.853Z,9.00
2019-04-27T18:59:53.427Z,9.00
2019-04-27T19:02:05.073Z,8.90
2019-04-27T19:04:10.866Z,8.80
2019-04-27T19:06:19.128Z,8.70
2019-04-27T19:08:31.566Z,8.50
2019-04-27T19:10:38.352Z,8.30
2019-04-27T19:12:52.074Z,8.10
2019-04-27T19:14:58.991Z,8.20
2019-04-27T19:17:05.393Z,8.30
2019-04-27T19:19:18.911Z,8.10
2019-04-27T19:21:25.039Z,8.00
2019-04-27T19:23:38.238Z,7.90
2019-04-27T19:26:10.835Z,7.80
2019-04-27T19:28:48.571Z,7.80
2019-04-27T19:31:01.890Z,7.50
2019-04-27T19:33:14.016Z,7.60
2019-04-27T19:35:19.962Z,7.40
2019-04-27T19:37:32.071Z,7.40
2019-04-27T19:39:39.358Z,7.40
2019-04-27T19:42:00.285Z,7.30
2019-04-27T19:43:59.869Z,7.20
2019-04-27T19:46:05.421Z,7.20
2019-04-27T19:48:25.263Z,7.10
2019-04-27T19:50:39.231Z,7.10
2019-04-27T19:52:52.118Z,7.20
2019-04-27T19:55:01.105Z,7.00
2019-04-27T19:57:13.414Z,7.00
2019-04-27T19:59:23.675Z,6.90
2019-04-27T20:01:46.005Z,6.80
2019-04-27T20:04:03.334Z,6.80
2019-04-27T20:06:09.427Z,6.70
2019-04-27T20:08:25.470Z,6.60
2019-04-27T20:10:38.518Z,6.30
2019-04-27T20:12:51.178Z,6.00
2019-04-27T20:14:57.160Z,6.10
2019-04-27T20:17:09.539Z,6.10
2019-04-27T20:19:22.506Z,6.10
2019-04-27T20:21:28.075Z,6.10
2019-04-27T20:23:42.914Z,6.00
2019-04-27T20:25:49.143Z,5.90
2019-04-27T20:28:01.688Z,6.00
2019-04-27T20:30:24.651Z,6.00
2019-04-27T20:32:31.311Z,6.00
2019-04-27T20:34:41.141Z,6.00
2019-04-27T20:36:54.291Z,5.80
2019-04-27T20:39:13.929Z,5.60
2019-04-27T20:41:19.623Z,5.50
2019-04-27T20:43:31.885Z,5.60
2019-04-27T20:45:44.638Z,5.30
2019-04-27T20:47:56.582Z,5.30
2019-04-27T20:50:11.142Z,5.30
2019-04-27T20:52:44.018Z,5.40
2019-04-27T20:54:51.370Z,5.40
2019-04-27T20:57:03.342Z,5.40
2019-04-27T20:59:15.470Z,5.40
2019-04-27T21:01:28.358Z,5.40
2019-04-27T21:03:43.846Z,5.40
2019-04-27T21:06:11.495Z,5.40
2019-04-27T21:08:23.785Z,5.50
2019-04-27T21:10:30.797Z,5.50
2019-04-27T21:12:43.577Z,5.60
2019-04-27T21:14:57.028Z,5.60
2019-04-27T21:17:02.726Z,5.60
2019-04-27T21:19:08.194Z,5.30
2019-04-27T21:21:21.671Z,5.40
2019-04-27T21:23:27.151Z,5.30
2019-04-27T21:25:39.186Z,5.20
2019-04-27T21:27:44.646Z,5.00
2019-04-27T21:30:02.884Z,5.10
2019-04-27T21:32:11.061Z,5.00
2019-04-27T21:34:18.938Z,5.00
2019-04-27T21:36:33.109Z,4.90
2019-04-27T21:38:38.714Z,4.90
2019-04-27T21:40:44.824Z,5.00
2019-04-27T21:43:00.739Z,5.00
2019-04-27T21:45:06.626Z,5.00
2019-04-27T21:47:21.243Z,4.90
2019-04-27T21:49:33.628Z,4.90
2019-04-27T21:51:58.358Z,4.90
2019-04-27T21:54:24.274Z,4.80
2019-04-27T21:56:31.168Z,4.80
2019-04-27T21:58:36.717Z,4.70
2019-04-27T22:01:06.674Z,4.60
2019-04-27T22:03:13.437Z,4.60
2019-04-27T22:05:25.662Z,4.70
2019-04-27T22:07:31.726Z,4.80
2019-04-27T22:09:44.159Z,4.90
2019-04-27T22:11:56.225Z,4.80
2019-04-27T22:14:02.078Z,4.70
2019-04-27T22:16:13.695Z,4.70
2019-04-27T22:18:25.294Z,4.90
2019-04-27T22:20:32.425Z,4.80
2019-04-27T22:22:51.543Z,4.90
2019-04-27T22:25:05.746Z,5.00
2019-04-27T22:27:17.754Z,5.00
2019-04-27T22:29:31.856Z,5.10
2019-04-27T22:31:43.366Z,5.00
2019-04-27T22:33:55.483Z,4.90
2019-04-27T22:36:01.890Z,4.80
2019-04-27T22:38:14.526Z,5.00
2019-04-27T22:40:43.368Z,5.10
2019-04-27T22:43:07.216Z,5.20
2019-04-27T22:45:29.723Z,5.20
2019-04-27T22:47:42.751Z,5.20
2019-04-27T22:49:54.511Z,5.10
2019-04-27T22:52:01.519Z,5.20
2019-04-27T22:54:13.191Z,5.40
2019-04-27T22:56:26.423Z,5.50
2019-04-27T22:58:32.088Z,5.50
2019-04-27T23:00:56.432Z,5.40
2019-04-27T23:03:10.995Z,5.40
2019-04-27T23:05:16.710Z,5.50
2019-04-27T23:07:31.440Z,5.40
2019-04-27T23:09:37.230Z,5.30
2019-04-27T23:11:42.634Z,5.40
2019-04-27T23:13:54.600Z,5.40
2019-04-27T23:16:01.639Z,5.30
2019-04-27T23:18:14.175Z,5.30
2019-04-27T23:20:20.815Z,5.20
2019-04-27T23:22:26.574Z,5.10
2019-04-27T23:24:38.694Z,4.90
2019-04-27T23:26:51.122Z,4.90
2019-04-27T23:28:56.561Z,4.90
2019-04-27T23:31:22.038Z,4.80
2019-04-27T23:33:27.417Z,4.70
2019-04-27T23:35:41.055Z,4.60
2019-04-27T23:37:53.392Z,4.30
2019-04-27T23:40:00.597Z,4.20
2019-04-27T23:42:14.626Z,4.30
2019-04-27T23:44:20.014Z,4.30
2019-04-27T23:46:25.678Z,4.30
2019-04-27T23:48:44.479Z,4.30
2019-04-27T23:50:52.120Z,4.10
2019-04-27T23:53:15.290Z,4.10
2019-04-27T23:55:27.299Z,4.20
2019-04-27T23:57:34.023Z,4.20
2019-04-27T23:59:45.713Z,4.40
